Wetterdaten: Mittwoch, 24.09.2014
Datum Zeit Temp. A. Feuchte A. Luftdruck Regen Wind Richtung Richtung Sonnenschein ET UV Solar Taupunkt Windchill Windben Empfang
24.09.2014 00:00 5,0 C 91 % 1018,4 hPa 0,0 l/m 0,0 km/h (0 Bft) SO 141 0 min 0,000 mm 0,0 UV-I 0 W/m 3,7 C 5,0 C 0,0 km/h (0 Bft) 0,00 %
24.09.2014 00:15 4,9 C 91 % 1018,5 hPa 0,0 l/m 0,0 km/h (0 Bft) SO 141 0 min 0,000 mm 0,0 UV-I 0 W/m 3,6 C 4,9 C 0,0 km/h (0 Bft) 0,00 %
24.09.2014 00:30 4,8 C 91 % 1018,4 hPa 0,0 l/m 0,0 km/h (0 Bft) SO 141 0 min 0,000 mm 0,0 UV-I 0 W/m 3,5 C 4,8 C 0,0 km/h (0 Bft) 0,00 %
24.09.2014 00:45 4,8 C 91 % 1018,2 hPa 0,0 l/m 0,0 km/h (0 Bft) O 93 0 min 0,000 mm 0,0 UV-I 0 W/m 3,5 C 4,8 C 0,0 km/h (0 Bft) 0,00 %
24.09.2014 01:00 4,9 C 91 % 1018,2 hPa 0,0 l/m 0,0 km/h (0 Bft) O-SO 114 0 min 0,000 mm 0,0 UV-I 0 W/m 3,6 C 4,9 C 0,0 km/h (0 Bft) 0,00 %
24.09.2014 01:15 4,8 C 91 % 1018,2 hPa 0,0 l/m 0,0 km/h (0 Bft) SO 128 0 min 0,000 mm 0,0 UV-I 0 W/m 3,5 C 4,8 C 0,0 km/h (0 Bft) 0,00 %
24.09.2014 01:30 4,7 C 91 % 1018,3 hPa 0,0 l/m 0,0 km/h (0 Bft) SO 140 0 min 0,000 mm 0,0 UV-I 0 W/m 3,4 C 4,7 C 0,0 km/h (0 Bft) 0,00 %
24.09.2014 01:45 4,7 C 91 % 1018,0 hPa 0,0 l/m 0,0 km/h (0 Bft) SO 140 0 min 0,000 mm 0,0 UV-I 0 W/m 3,4 C 4,7 C 0,0 km/h (0 Bft) 0,00 %
24.09.2014 02:00 4,7 C 91 % 1018,1 hPa 0,0 l/m 0,0 km/h (0 Bft) SO 124 0 min 0,000 mm 0,0 UV-I 0 W/m 3,4 C 4,7 C 0,0 km/h (0 Bft) 0,00 %
24.09.2014 02:15 4,7 C 91 % 1017,9 hPa 0,0 l/m 0,0 km/h (0 Bft) S 179 0 min 0,000 mm 0,0 UV-I 0 W/m 3,4 C 4,7 C 0,0 km/h (0 Bft) 0,00 %
24.09.2014 02:30 4,6 C 92 % 1017,8 hPa 0,0 l/m 0,0 km/h (0 Bft) SO 142 0 min 0,000 mm 0,0 UV-I 0 W/m 3,4 C 4,6 C 0,0 km/h (0 Bft) 0,00 %
24.09.2014 02:45 4,4 C 92 % 1018,0 hPa 0,0 l/m 0,0 km/h (0 Bft) S 178 0 min 0,000 mm 0,0 UV-I 0 W/m 3,2 C 4,4 C 0,0 km/h (0 Bft) 0,00 %
24.09.2014 03:00 4,1 C 92 % 1017,8 hPa 0,0 l/m 0,0 km/h (0 Bft) S 178 0 min 0,000 mm 0,0 UV-I 0 W/m 2,9 C 4,1 C 0,0 km/h (0 Bft) 0,00 %
24.09.2014 03:15 4,0 C 93 % 1017,4 hPa 0,0 l/m 0,0 km/h (0 Bft) S 173 0 min 0,000 mm 0,0 UV-I 0 W/m 3,0 C 4,0 C 0,0 km/h (0 Bft) 0,00 %
24.09.2014 03:30 4,0 C 93 % 1017,4 hPa 0,0 l/m 0,0 km/h (0 Bft) S 173 0 min 0,000 mm 0,0 UV-I 0 W/m 3,0 C 4,0 C 0,0 km/h (0 Bft) 0,00 %
24.09.2014 03:45 3,6 C 93 % 1017,3 hPa 0,0 l/m 0,0 km/h (0 Bft) S 173 0 min 0,000 mm 0,0 UV-I 0 W/m 2,6 C 3,6 C 0,0 km/h (0 Bft) 0,00 %
24.09.2014 04:00 3,5 C 93 % 1017,1 hPa 0,0 l/m 0,0 km/h (0 Bft) S-SW 207 0 min 0,000 mm 0,0 UV-I 0 W/m 2,5 C 3,5 C 0,0 km/h (0 Bft) 0,00 %
24.09.2014 04:15 4,2 C 93 % 1017,1 hPa 0,0 l/m 0,0 km/h (0 Bft) S 170 0 min 0,000 mm 0,0 UV-I 0 W/m 3,2 C 4,2 C 0,0 km/h (0 Bft) 0,00 %
24.09.2014 04:30 4,3 C 93 % 1016,9 hPa 0,0 l/m 0,0 km/h (0 Bft) S 183 0 min 0,000 mm 0,0 UV-I 0 W/m 3,3 C 4,3 C 0,0 km/h (0 Bft) 0,00 %
24.09.2014 04:45 4,3 C 93 % 1016,7 hPa 0,0 l/m 0,0 km/h (0 Bft) S 173 0 min 0,000 mm 0,0 UV-I 0 W/m 3,3 C 4,3 C 0,0 km/h (0 Bft) 0,00 %
24.09.2014 05:00 4,3 C 93 % 1016,7 hPa 0,0 l/m 0,0 km/h (0 Bft) SO 135 0 min 0,000 mm 0,0 UV-I 0 W/m 3,3 C 4,3 C 0,0 km/h (0 Bft) 0,00 %
24.09.2014 05:15 4,2 C 93 % 1016,8 hPa 0,0 l/m 0,0 km/h (0 Bft) SO 142 0 min 0,000 mm 0,0 UV-I 0 W/m 3,2 C 4,2 C 0,0 km/h (0 Bft) 0,00 %
24.09.2014 05:30 4,1 C 93 % 1016,7 hPa 0,0 l/m 0,0 km/h (0 Bft) S 172 0 min 0,000 mm 0,0 UV-I 0 W/m 3,1 C 4,1 C 0,0 km/h (0 Bft) 0,00 %
24.09.2014 05:45 3,9 C 93 % 1016,6 hPa 0,0 l/m 0,0 km/h (0 Bft) S 172 0 min 0,000 mm 0,0 UV-I 0 W/m 2,9 C 3,9 C 0,0 km/h (0 Bft) 0,00 %
24.09.2014 06:00 3,7 C 93 % 1016,3 hPa 0,0 l/m 0,0 km/h (0 Bft) SO 134 0 min 0,000 mm 0,0 UV-I 0 W/m 2,7 C 3,7 C 0,0 km/h (0 Bft) 0,00 %
24.09.2014 06:15 3,5 C 94 % 1016,4 hPa 0,0 l/m 0,0 km/h (0 Bft) SO 134 0 min 0,000 mm 0,0 UV-I 0 W/m 2,6 C 3,5 C 0,0 km/h (0 Bft) 0,00 %
24.09.2014 06:30 3,4 C 94 % 1016,6 hPa 0,0 l/m 0,0 km/h (0 Bft) SO 134 0 min 0,000 mm 0,0 UV-I 0 W/m 2,5 C 3,4 C 0,0 km/h (0 Bft) 0,00 %
24.09.2014 06:45 3,3 C 94 % 1016,3 hPa 0,0 l/m 0,0 km/h (0 Bft) SO 137 0 min 0,000 mm 1,0 UV-I 0 W/m 2,4 C 3,3 C 0,0 km/h (0 Bft) 0,00 %
24.09.2014 07:00 3,1 C 94 % 1016,0 hPa 0,0 l/m 0,0 km/h (0 Bft) S 172 0 min 0,000 mm 1,0 UV-I 1 W/m 2,2 C 3,1 C 0,0 km/h (0 Bft) 0,00 %
24.09.2014 07:15 3,1 C 94 % 1016,1 hPa 0,0 l/m 0,0 km/h (0 Bft) S 175 0 min 0,000 mm 1,0 UV-I 19 W/m 2,2 C 3,1 C 0,0 km/h (0 Bft) 0,00 %
24.09.2014 07:30 3,2 C 94 % 1016,2 hPa 0,0 l/m 0,0 km/h (0 Bft) S-SW 198 0 min 0,000 mm 1,0 UV-I 35 W/m 2,3 C 3,2 C 0,0 km/h (0 Bft) 0,00 %
24.09.2014 07:45 3,5 C 93 % 1015,8 hPa 0,0 l/m 0,0 km/h (0 Bft) W-SW 240 0 min 0,000 mm 1,0 UV-I 63 W/m 2,5 C 3,5 C 0,0 km/h (0 Bft) 0,00 %
24.09.2014 08:00 3,5 C 93 % 1015,6 hPa 0,0 l/m 0,0 km/h (0 Bft) S 176 0 min 0,000 mm 1,0 UV-I 75 W/m 2,5 C 3,5 C 0,0 km/h (0 Bft) 0,00 %
24.09.2014 08:15 3,6 C 93 % 1015,6 hPa 0,0 l/m 0,0 km/h (0 Bft) SO 134 0 min 0,000 mm 2,0 UV-I 95 W/m 2,6 C 3,6 C 0,0 km/h (0 Bft) 0,00 %
24.09.2014 08:30 4,6 C 92 % 1015,4 hPa 0,0 l/m 0,0 km/h (0 Bft) S 173 0 min 0,000 mm 2,0 UV-I 111 W/m 3,4 C 4,6 C 0,0 km/h (0 Bft) 0,00 %
24.09.2014 08:45 4,5 C 92 % 1015,4 hPa 0,0 l/m 0,0 km/h (0 Bft) SW 223 0 min 0,000 mm 2,0 UV-I 109 W/m 3,3 C 4,5 C 0,0 km/h (0 Bft) 0,00 %
24.09.2014 09:00 5,0 C 93 % 1015,3 hPa 0,0 l/m 0,0 km/h (0 Bft) S 180 0 min 0,000 mm 2,0 UV-I 182 W/m 4,0 C 5,0 C 0,0 km/h (0 Bft) 0,00 %
24.09.2014 09:15 5,4 C 92 % 1015,1 hPa 0,0 l/m 0,0 km/h (0 Bft) W-SW 252 0 min 0,000 mm 2,0 UV-I 161 W/m 4,2 C 5,4 C 0,0 km/h (0 Bft) 0,00 %
24.09.2014 09:30 5,9 C 91 % 1015,1 hPa 0,0 l/m 0,0 km/h (0 Bft) S 174 0 min 0,000 mm 2,0 UV-I 161 W/m 4,5 C 5,9 C 0,0 km/h (0 Bft) 0,00 %
24.09.2014 09:45 6,8 C 88 % 1014,8 hPa 0,0 l/m 0,0 km/h (0 Bft) SO 132 0 min 0,000 mm 2,0 UV-I 152 W/m 5,0 C 6,8 C 0,0 km/h (0 Bft) 0,00 %
24.09.2014 10:00 7,0 C 85 % 1014,6 hPa 0,0 l/m 0,0 km/h (0 Bft) S-SW 203 0 min 0,000 mm 3,0 UV-I 196 W/m 4,7 C 7,0 C 0,0 km/h (0 Bft) 0,00 %
24.09.2014 10:15 8,0 C 82 % 1014,3 hPa 0,0 l/m 0,0 km/h (0 Bft) S 183 0 min 0,000 mm 4,0 UV-I 245 W/m 5,1 C 8,0 C 0,0 km/h (0 Bft) 0,00 %
24.09.2014 10:30 8,2 C 79 % 1014,3 hPa 0,0 l/m 1,4 km/h (1 Bft) O-NO 61 0 min 0,000 mm 4,0 UV-I 151 W/m 4,8 C 8,2 C 4,0 km/h (1 Bft) 0,00 %
24.09.2014 10:45 8,6 C 76 % 1014,3 hPa 0,0 l/m 0,7 km/h (0 Bft) O-SO 115 0 min 0,000 mm 4,0 UV-I 129 W/m 4,6 C 8,6 C 4,0 km/h (1 Bft) 0,00 %
24.09.2014 11:00 10,7 C 71 % 1013,6 hPa 0,0 l/m 2,9 km/h (1 Bft) O-NO 66 0 min 0,000 mm 4,0 UV-I 275 W/m 5,7 C 10,7 C 4,0 km/h (1 Bft) 0,00 %
24.09.2014 11:15 11,5 C 67 % 1013,5 hPa 0,0 l/m 0,0 km/h (0 Bft) S-SW 202 0 min 0,000 mm 5,0 UV-I 314 W/m 5,6 C 11,5 C 0,0 km/h (0 Bft) 0,00 %
24.09.2014 11:30 12,7 C 64 % 1013,3 hPa 0,0 l/m 0,0 km/h (0 Bft) O 99 15 min 0,000 mm 5,0 UV-I 346 W/m 6,1 C 12,7 C 0,0 km/h (0 Bft) 0,00 %
24.09.2014 11:45 12,2 C 63 % 1013,1 hPa 0,0 l/m 3,2 km/h (1 Bft) O-SO 114 15 min 0,000 mm 5,0 UV-I 388 W/m 5,4 C 12,2 C 4,0 km/h (1 Bft) 0,00 %
24.09.2014 12:00 12,6 C 62 % 1012,8 hPa 0,0 l/m 0,0 km/h (0 Bft) SO 124 15 min 0,000 mm 5,0 UV-I 432 W/m 5,5 C 12,6 C 0,0 km/h (0 Bft) 0,00 %
24.09.2014 12:15 12,9 C 63 % 1012,5 hPa 0,0 l/m 0,0 km/h (0 Bft) SW 236 15 min 0,000 mm 5,0 UV-I 455 W/m 6,0 C 12,9 C 0,0 km/h (0 Bft) 0,00 %
24.09.2014 12:30 12,9 C 62 % 1012,4 hPa 0,0 l/m 7,9 km/h (2 Bft) O 94 15 min 0,000 mm 5,0 UV-I 511 W/m 5,8 C 12,0 C 11,9 km/h (2 Bft) 0,00 %
24.09.2014 12:45 13,3 C 61 % 1012,2 hPa 0,0 l/m 0,0 km/h (0 Bft) NO 42 15 min 0,000 mm 4,0 UV-I 535 W/m 5,9 C 13,3 C 0,0 km/h (0 Bft) 0,00 %
24.09.2014 13:00 13,1 C 64 % 1011,9 hPa 0,0 l/m 0,0 km/h (0 Bft) NO 52 15 min 0,000 mm 2,0 UV-I 551 W/m 6,4 C 13,1 C 0,0 km/h (0 Bft) 0,00 %
24.09.2014 13:15 13,4 C 64 % 1011,5 hPa 0,0 l/m 0,4 km/h (0 Bft) N-NW 329 15 min 0,000 mm 2,0 UV-I 550 W/m 6,7 C 13,4 C 4,0 km/h (1 Bft) 0,00 %
24.09.2014 13:30 13,5 C 63 % 1011,4 hPa 0,0 l/m 3,2 km/h (1 Bft) O-SO 102 15 min 0,000 mm 2,0 UV-I 568 W/m 6,6 C 13,5 C 4,0 km/h (1 Bft) 0,00 %
24.09.2014 13:45 13,8 C 61 % 1011,1 hPa 0,0 l/m 1,8 km/h (1 Bft) O-NO 67 15 min 0,000 mm 2,0 UV-I 560 W/m 6,4 C 13,8 C 4,0 km/h (1 Bft) 0,00 %
24.09.2014 14:00 14,2 C 60 % 1010,9 hPa 0,0 l/m 0,4 km/h (0 Bft) O 92 15 min 0,000 mm 2,0 UV-I 555 W/m 6,5 C 14,2 C 4,0 km/h (1 Bft) 0,00 %
24.09.2014 14:15 14,5 C 58 % 1010,5 hPa 0,0 l/m 7,2 km/h (2 Bft) O-SO 106 15 min 0,000 mm 2,0 UV-I 550 W/m 6,3 C 14,0 C 7,9 km/h (2 Bft) 0,00 %
24.09.2014 14:30 14,8 C 60 % 1010,3 hPa 0,0 l/m 5,4 km/h (1 Bft) O 101 15 min 0,000 mm 2,0 UV-I 545 W/m 7,1 C 14,8 C 7,9 km/h (2 Bft) 0,00 %
24.09.2014 14:45 15,0 C 57 % 1010,0 hPa 0,0 l/m 0,0 km/h (0 Bft) NO 37 15 min 0,000 mm 2,0 UV-I 567 W/m 6,6 C 15,0 C 0,0 km/h (0 Bft) 0,00 %
24.09.2014 15:00 15,1 C 61 % 1009,8 hPa 0,0 l/m 0,0 km/h (0 Bft) SO 141 15 min 0,000 mm 2,0 UV-I 525 W/m 7,6 C 15,1 C 0,0 km/h (0 Bft) 0,00 %
24.09.2014 15:15 15,4 C 57 % 1009,5 hPa 0,0 l/m 4,7 km/h (1 Bft) O-SO 110 15 min 0,000 mm 2,0 UV-I 530 W/m 6,9 C 15,4 C 7,9 km/h (2 Bft) 0,00 %
24.09.2014 15:30 15,7 C 55 % 1009,5 hPa 0,0 l/m 0,0 km/h (0 Bft) SO 127 15 min 0,000 mm 2,0 UV-I 525 W/m 6,7 C 15,7 C 0,0 km/h (0 Bft) 0,00 %
24.09.2014 15:45 15,8 C 54 % 1009,1 hPa 0,0 l/m 0,0 km/h (0 Bft) S-SW 204 15 min 0,000 mm 2,0 UV-I 520 W/m 6,5 C 15,8 C 0,0 km/h (0 Bft) 0,00 %
24.09.2014 16:00 15,9 C 55 % 1008,4 hPa 0,0 l/m 0,4 km/h (0 Bft) O 91 15 min 0,000 mm 2,0 UV-I 514 W/m 6,9 C 15,9 C 4,0 km/h (1 Bft) 0,00 %
24.09.2014 16:15 16,0 C 57 % 1008,4 hPa 0,0 l/m 2,2 km/h (1 Bft) S-SO 164 15 min 0,000 mm 1,0 UV-I 517 W/m 7,5 C 16,0 C 4,0 km/h (1 Bft) 0,00 %
24.09.2014 16:30 16,1 C 57 % 1008,2 hPa 0,0 l/m 4,0 km/h (1 Bft) O 99 15 min 0,000 mm 1,0 UV-I 510 W/m 7,6 C 16,1 C 4,0 km/h (1 Bft) 0,00 %
24.09.2014 16:45 16,5 C 55 % 1008,0 hPa 0,0 l/m 0,0 km/h (0 Bft) O-NO 72 15 min 0,000 mm 1,0 UV-I 456 W/m 7,4 C 16,5 C 0,0 km/h (0 Bft) 0,00 %
24.09.2014 17:00 16,8 C 56 % 1008,2 hPa 0,0 l/m 2,2 km/h (1 Bft) O 99 15 min 0,000 mm 1,0 UV-I 419 W/m 8,0 C 16,8 C 4,0 km/h (1 Bft) 0,00 %
24.09.2014 17:15 16,1 C 60 % 1008,4 hPa 0,0 l/m 0,0 km/h (0 Bft) O-SO 117 15 min 0,000 mm 1,0 UV-I 160 W/m 8,3 C 16,1 C 0,0 km/h (0 Bft) 0,00 %
24.09.2014 17:30 15,7 C 60 % 1008,3 hPa 0,0 l/m 0,0 km/h (0 Bft) S 175 15 min 0,000 mm 0,0 UV-I 171 W/m 8,0 C 15,7 C 0,0 km/h (0 Bft) 0,00 %
24.09.2014 17:45 15,5 C 61 % 1008,4 hPa 0,0 l/m 0,0 km/h (0 Bft) S 171 15 min 0,000 mm 0,0 UV-I 197 W/m 8,0 C 15,5 C 0,0 km/h (0 Bft) 0,00 %
24.09.2014 18:00 15,4 C 63 % 1008,5 hPa 0,0 l/m 0,0 km/h (0 Bft) S 173 15 min 0,000 mm 0,0 UV-I 116 W/m 8,4 C 15,4 C 0,0 km/h (0 Bft) 0,00 %
24.09.2014 18:15 15,0 C 64 % 1008,7 hPa 0,0 l/m 0,0 km/h (0 Bft) S 174 15 min 0,000 mm 0,0 UV-I 69 W/m 8,2 C 15,0 C 0,0 km/h (0 Bft) 0,00 %
24.09.2014 18:30 14,5 C 70 % 1008,7 hPa 0,0 l/m 0,0 km/h (0 Bft) SO 124 0 min 0,000 mm 0,0 UV-I 30 W/m 9,1 C 14,5 C 0,0 km/h (0 Bft) 0,00 %
24.09.2014 18:45 13,6 C 71 % 1008,9 hPa 0,0 l/m 0,0 km/h (0 Bft) SO 129 0 min 0,000 mm 0,0 UV-I 8 W/m 8,4 C 13,6 C 0,0 km/h (0 Bft) 0,00 %
24.09.2014 19:00 12,8 C 73 % 1009,0 hPa 0,0 l/m 0,0 km/h (0 Bft) S-SO 157 0 min 0,000 mm 0,0 UV-I 0 W/m 8,1 C 12,8 C 0,0 km/h (0 Bft) 0,00 %
24.09.2014 19:15 12,2 C 74 % 1009,1 hPa 0,0 l/m 0,0 km/h (0 Bft) S 176 0 min 0,000 mm 0,0 UV-I 0 W/m 7,7 C 12,2 C 0,0 km/h (0 Bft) 0,00 %
24.09.2014 19:30 11,8 C 80 % 1009,6 hPa 0,0 l/m 0,0 km/h (0 Bft) S-SW 196 0 min 0,000 mm 0,0 UV-I 0 W/m 8,5 C 11,8 C 0,0 km/h (0 Bft) 0,00 %
24.09.2014 19:45 11,1 C 81 % 1009,5 hPa 0,0 l/m 0,0 km/h (0 Bft) S 187 0 min 0,000 mm 0,0 UV-I 0 W/m 8,0 C 11,1 C 0,0 km/h (0 Bft) 0,00 %
24.09.2014 20:00 10,7 C 83 % 1009,6 hPa 0,0 l/m 0,0 km/h (0 Bft) S 189 0 min 0,000 mm 0,0 UV-I 0 W/m 7,9 C 10,7 C 0,0 km/h (0 Bft) 0,00 %
24.09.2014 20:15 10,2 C 83 % 1009,8 hPa 0,0 l/m 0,0 km/h (0 Bft) S 186 0 min 0,000 mm 0,0 UV-I 0 W/m 7,4 C 10,2 C 0,0 km/h (0 Bft) 0,00 %
24.09.2014 20:30 9,9 C 85 % 1010,1 hPa 0,0 l/m 0,0 km/h (0 Bft) S 173 0 min 0,000 mm 0,0 UV-I 0 W/m 7,5 C 9,9 C 0,0 km/h (0 Bft) 0,00 %
24.09.2014 20:45 9,9 C 86 % 1010,1 hPa 0,0 l/m 0,0 km/h (0 Bft) S 183 0 min 0,000 mm 0,0 UV-I 0 W/m 7,7 C 9,9 C 0,0 km/h (0 Bft) 0,00 %
24.09.2014 21:00 9,7 C 86 % 1009,8 hPa 0,0 l/m 0,0 km/h (0 Bft) S-SW 193 0 min 0,000 mm 0,0 UV-I 0 W/m 7,5 C 9,7 C 0,0 km/h (0 Bft) 0,00 %
24.09.2014 21:15 9,6 C 87 % 1010,0 hPa 0,0 l/m 0,0 km/h (0 Bft) S 190 0 min 0,000 mm 0,0 UV-I 0 W/m 7,5 C 9,6 C 0,0 km/h (0 Bft) 0,00 %
24.09.2014 21:30 9,6 C 88 % 1010,0 hPa 0,0 l/m 0,0 km/h (0 Bft) SW 222 0 min 0,000 mm 0,0 UV-I 0 W/m 7,7 C 9,6 C 0,0 km/h (0 Bft) 0,00 %
24.09.2014 21:45 9,6 C 88 % 1010,0 hPa 0,0 l/m 0,0 km/h (0 Bft) S 181 0 min 0,000 mm 0,0 UV-I 0 W/m 7,7 C 9,6 C 0,0 km/h (0 Bft) 0,00 %
24.09.2014 22:00 9,6 C 88 % 1010,2 hPa 0,0 l/m 0,0 km/h (0 Bft) S 182 0 min 0,000 mm 0,0 UV-I 0 W/m 7,7 C 9,6 C 0,0 km/h (0 Bft) 0,00 %
24.09.2014 22:15 9,6 C 88 % 1010,2 hPa 0,0 l/m 0,0 km/h (0 Bft) S 182 0 min 0,000 mm 0,0 UV-I 0 W/m 7,7 C 9,6 C 0,0 km/h (0 Bft) 0,00 %
24.09.2014 22:30 9,5 C 88 % 1010,5 hPa 0,0 l/m 0,0 km/h (0 Bft) S 173 0 min 0,000 mm 0,0 UV-I 0 W/m 7,6 C 9,5 C 0,0 km/h (0 Bft) 0,00 %
24.09.2014 22:45 9,5 C 89 % 1010,6 hPa 0,0 l/m 0,0 km/h (0 Bft) S 187 0 min 0,000 mm 0,0 UV-I 0 W/m 7,8 C 9,5 C 0,0 km/h (0 Bft) 0,00 %
24.09.2014 23:00 9,8 C 89 % 1010,6 hPa 0,0 l/m 0,0 km/h (0 Bft) W-SW 237 0 min 0,000 mm 0,0 UV-I 0 W/m 8,1 C 9,8 C 0,0 km/h (0 Bft) 0,00 %
24.09.2014 23:15 10,0 C 89 % 1010,5 hPa 0,0 l/m 0,0 km/h (0 Bft) SO 129 0 min 0,000 mm 0,0 UV-I 0 W/m 8,3 C 10,0 C 0,0 km/h (0 Bft) 0,00 %
24.09.2014 23:30 10,0 C 89 % 1010,7 hPa 0,0 l/m 0,0 km/h (0 Bft) S-SW 203 0 min 0,000 mm 0,0 UV-I 0 W/m 8,3 C 10,0 C 0,0 km/h (0 Bft) 0,00 %
24.09.2014 23:45 9,9 C 89 % 1010,7 hPa 0,0 l/m 0,0 km/h (0 Bft) W-SW 251 0 min 0,000 mm 0,0 UV-I 0 W/m 8,2 C 9,9 C 0,0 km/h (0 Bft) 0,00 %
_ Min-Zeit 07:00 15:45 16:45 - 00:00 - - - - - - 07:00 07:00 00:00 00:00
Minimum _ 3,1 C 54 % 1008,0 hPa - 0,0 km/h (0 Bft) - - - - - - 2,2 C 3,1 C 0,0 km/h (0 Bft) 0,00 %
_ Max-Zeit 17:00 06:15 00:15 00:00 12:30 - - 11:30 00:00 11:15 13:30 18:30 17:00 12:30 00:00
Maximum _ 16,8 C 94 % 1018,5 hPa 0,0 l/m 7,9 km/h
O (2 Bft)
- - 15 min 0,000 mm 5,0 UV-I 568 W/m 9,1 C 16,8 C 11,9 km/h
O (2 Bft)
0,00 %
Durchschnitt _ 9,1 C 80 % 1013,1 hPa #0,0 l/m 0,5 km/h (0 Bft) O - #7:00 h #0,000 mm 2,4 UV-I 309 W/m 5,5 C 9,1 C 0,9 km/h (0 Bft) 0,00 %